Latest Coastal Weather Observations for Cerberus

IDV60701

Issued at 1:55 pm EDT Sunday 26 October 2014 (issued every 10 minutes, with the page automatically refreshed every 10 minutes)

About coastal observations | Map of coastal stations | Coastal observations for VIC | Marine services | Other Formats
Station Details ID: 086361 Name: CERBERUS Lat: -38.36 Lon: 145.18 Height: 12.69 m
Data from the previous 72 hours. | See also: Recent months at Cerberus
Date/Time
EDT
Temp

°C
Wind Pressure Rain
since 9am
mm
Weather Cloud Vis
km
Sea
Height
m
Swell
Dir
 
Speed
knots
Gust
knots
hPa Trend Height
m
Period
s
Dir
26/01:30pm 17.1 E 2 5 1013.0 - 0.0 - - - - - - -
26/01:00pm 15.7 WNW 3 5 1013.5 - 0.0 - - - - - - -
26/12:30pm 14.8 SSW 4 6 1013.6 - 0.0 - - - - - - -
26/12:00pm 15.0 SSW 3 6 1013.9 - 0.0 - - - - - - -
26/11:30am 14.8 E 2 5 1014.2 - 0.0 - - - - - - -
26/11:00am 14.0 S 5 8 1014.6 - 0.0 - - - - - - -
26/10:30am 14.1 S 3 8 1014.9 - 0.0 - - - - - - -
26/10:00am 13.7 SSW 5 8 1014.8 - 0.0 - - - - - - -
26/09:30am 13.4 SSW 5 7 1014.6 - 0.0 - - - - - - -
26/09:00am 13.4 SW 4 7 1014.7 - 0.0 - - - - - - -
26/08:30am 13.4 W 2 5 1014.4 - 0.0 - - - - - - -
26/08:00am 13.4 WNW 1 3 1014.0 - 0.0 - - - - - - -
26/07:30am 13.1 SW 2 2 1013.7 - 0.0 - - - - - - -
26/07:00am 12.9 SW 2 4 1013.7 - 0.0 - - - - - - -
26/06:30am 12.8 SW 3 4 1013.5 - 0.0 - - - - - - -
26/06:00am 12.7 WSW 4 6 1013.3 - 0.0 - - - - - - -
26/05:30am 12.9 WSW 3 5 1013.3 - 0.0 - - - - - - -
26/05:00am 12.8 SW 3 5 1013.3 - 0.0 - - - - - - -
26/04:30am 12.9 SSW 1 4 1013.1 - 0.0 - - - - - - -
26/04:00am 12.8 S 2 3 1013.3 - 0.0 - - - - - - -
26/03:30am 12.8 S 3 5 1013.3 - 0.0 - - - - - - -
26/03:00am 12.5 S 2 4 1013.4 - 0.0 - - - - - - -
26/02:30am 12.1 S 2 3 1014.0 - 0.0 - - - - - - -
26/02:00am 11.7 S 1 2 1014.3 - 0.0 - - - - - - -
26/01:30am 10.9 SE 2 2 1015.0 - 0.0 - - - - - - -
26/01:00am 12.3 SSE 2 3 1014.9 - 0.0 - - - - - - -
26/12:30am 12.9 SSE 2 4 1015.3 - 0.0 - - - - - - -
26/12:00am 13.2 SSE 3 5 1015.8 - 0.0 - - - - - - -
 
Date/Time
EDT
Temp

°C
Wind Pressure Rain
since 9am
mm
Weather Cloud Vis
km
Sea
Height
m
Swell
Dir
 
Speed
knots
Gust
knots
hPa Trend Height
m
Period
s
Dir
25/11:30pm 13.4 SSW 3 4 1016.1 - 0.0 - - - - - - -
25/11:00pm 13.5 SSW 4 7 1016.3 - 0.0 - - - - - - -
25/10:30pm 13.5 S 4 6 1016.5 - 0.0 - - - - - - -
25/10:00pm 13.7 S 5 7 1016.5 - 0.0 - - - - - - -
25/09:30pm 13.6 SSE 3 5 1016.5 - 0.0 - - - - - - -
25/09:00pm 13.4 S 3 4 1016.4 - 0.0 - - - - - - -
25/08:30pm 13.1 S 4 6 1016.1 - 0.0 - - - - - - -
25/08:00pm 13.9 S 6 8 1016.2 - 0.0 - - - - - - -
25/07:30pm 14.0 S 5 9 1015.9 - 0.0 - - - - - - -
25/07:00pm 14.1 S 6 11 1015.9 - 0.0 - - - - - - -
25/06:30pm 14.6 S 6 9 1015.7 - 0.0 - - - - - - -
25/06:00pm 14.8 S 8 12 1015.4 - 0.0 - - - - - - -
25/05:30pm 14.9 S 8 12 1015.3 - 0.0 - - - - - - -
25/05:00pm 15.1 SSW 7 11 1015.3 - 0.0 - - - - - - -
25/04:30pm 15.5 S 8 13 1015.3 - 0.0 - - - - - - -
25/04:00pm 15.6 SSW 7 11 1015.2 - 0.0 - - - - - - -
25/03:30pm 15.8 SSW 9 12 1015.5 - 0.0 - - - - - - -
25/03:00pm 16.0 SSW 9 12 1015.7 - 0.0 - - - - - - -
25/02:30pm 16.2 SSW 8 12 1015.9 - 0.0 - - - - - - -
25/02:00pm 16.3 SSW 7 10 1016.2 - 0.0 - - - - - - -
25/01:30pm 17.2 W 3 8 1016.2 - 0.0 - - - - - - -
25/01:00pm 15.9 WSW 4 7 1016.5 - 0.0 - - - - - - -
25/12:30pm 15.9 WSW 2 6 1016.9 - 0.0 - - - - - - -
25/12:00pm 15.8 WSW 4 6 1017.2 - 0.0 - - - - - - -
25/11:30am 15.4 S 5 9 1017.5 - 0.0 - - - - - - -
25/11:00am 15.5 S 5 8 1017.5 - 0.0 - - - - - - -
25/10:30am 15.1 S 5 8 1017.8 - 0.0 - - - - - - -
25/10:00am 14.9 SSW 5 8 1017.9 - 0.0 - - - - - - -
25/09:30am 14.0 SSW 3 5 1017.9 - 0.0 - - - - - - -
25/09:00am 13.5 SW 3 4 1018.1 - 0.0 - - - - - - -
25/08:30am 13.7 WSW 5 7 1018.1 - 0.0 - - - - - - -
25/08:00am 13.6 SW 4 6 1017.9 - 0.0 - - - - - - -
25/07:30am 13.4 W 3 3 1017.5 - 0.0 - - - - - - -
25/07:00am 13.3 WSW 4 6 1017.3 - 0.0 - - - - - - -
25/06:30am 13.5 WNW 3 4 1017.1 - 0.0 - - - - - - -
25/06:00am 13.5 WNW 3 5 1016.8 - 0.0 - - - - - - -
25/05:30am 13.3 WSW 4 8 1016.4 - 0.0 - - - - - - -
25/05:00am 13.4 W 5 7 1016.3 - 0.0 - - - - - - -
25/04:30am 13.4 SW 6 10 1016.2 - 0.0 - - - - - - -
25/04:00am 13.8 WSW 6 10 1016.1 - 0.0 - - - - - - -
25/03:30am 13.9 WSW 5 8 1016.0 - 0.0 - - - - - - -
25/03:00am 13.8 WSW 4 8 1016.1 - 0.0 - - - - - - -
25/02:30am 13.9 SW 7 11 1016.2 - 0.0 - - - - - - -
25/02:00am 14.0 WSW 5 8 1016.4 - 0.0 - - - - - - -
25/01:30am 14.2 WSW 6 9 1016.4 - 0.0 - - - - - - -
25/01:00am 14.2 WSW 7 10 1016.5 - 0.0 - - - - - - -
25/12:30am 14.3 WSW 5 9 1016.4 - 0.0 - - - - - - -
25/12:00am 14.3 W 4 6 1016.3 - 0.0 - - - - - - -
 
Date/Time
EDT
Temp

°C
Wind Pressure Rain
since 9am
mm
Weather Cloud Vis
km
Sea
Height
m
Swell
Dir
 
Speed
knots
Gust
knots
hPa Trend Height
m
Period
s
Dir
24/11:30pm 14.4 SW 4 7 1016.3 - 0.0 - - - - - - -
24/11:00pm 14.5 WSW 6 11 1015.9 - 0.0 - - - - - - -
24/10:30pm 14.7 WSW 6 11 1015.8 - 0.0 - - - - - - -
24/10:00pm 14.7 SW 7 11 1015.4 - 0.0 - - - - - - -
24/09:30pm 14.5 SSW 7 12 1014.9 - 0.0 - - - - - - -
24/09:00pm 14.5 SW 9 16 1014.3 - 0.0 - - - - - - -
24/08:30pm 14.7 SSW 11 18 1013.4 - 0.0 - - - - - - -
24/08:00pm 14.8 SSW 10 16 1013.1 - 0.0 - - - - - - -
24/07:30pm 15.1 SW 12 19 1012.5 - 0.0 - - - - - - -
24/07:00pm 17.2 SSW 11 16 1011.9 - 0.0 - - - - - - -
24/06:30pm 18.0 SW 9 15 1011.0 - 0.0 - - - - - - -
24/06:00pm 18.8 SW 8 14 1010.5 - 0.0 - - - - - - -
24/05:30pm 19.4 SW 11 16 1010.3 - 0.0 - - - - - - -
24/05:00pm 21.3 SSW 9 14 1009.9 - 0.0 - - - - - - -
24/04:30pm 24.6 SSW 6 8 1009.6 - 0.0 - - - - - - -
24/04:00pm 25.4 SSW 6 9 1009.8 - 0.0 - - - - - - -
24/03:30pm 27.1 SSW 5 9 1009.7 - 0.0 - - - - - - -
24/03:00pm 27.2 W 7 11 1009.9 - 0.0 - - - - - - -
24/02:30pm 25.0 W 7 12 1010.3 - 0.0 - - - - - - -
24/02:00pm 24.8 WNW 7 11 1010.7 - 0.0 - - - - - - -
24/01:30pm 25.3 WNW 7 10 1010.5 - 0.0 - - - - - - -
24/01:00pm 24.6 NW 9 13 1010.6 - 0.0 - - - - - - -
24/12:30pm 24.8 NW 7 11 1010.8 - 0.0 - - - - - - -
24/12:00pm 24.1 NNW 8 13 1010.9 - 0.0 - - - - - - -
24/11:30am 22.4 ENE 4 6 1011.1 - 0.0 - - - - - - -
24/11:00am 20.7 NE 4 6 1011.4 - 0.0 - - - - - - -
24/10:30am 19.9 NE 5 8 1011.5 - 0.0 - - - - - - -
24/10:00am 19.3 NE 6 10 1011.5 - 0.0 - - - - - - -
24/09:30am 18.4 NE 6 9 1011.7 - 0.0 - - - - - - -
24/09:00am 17.8 NE 6 11 1012.2 - 0.0 - - - - - - -
24/08:30am 17.6 NE 5 9 1012.3 - 0.0 - - - - - - -
24/08:00am 16.9 NE 6 10 1012.2 - 0.0 - - - - - - -
24/07:30am 16.1 NE 4 9 1012.3 - 0.0 - - - - - - -
24/07:00am 15.7 NE 4 7 1012.2 - 0.0 - - - - - - -
24/06:30am 15.7 NE 4 6 1012.2 - 0.0 - - - - - - -
24/06:00am 15.8 NE 3 6 1012.4 - 0.0 - - - - - - -
24/05:30am 16.1 ENE 3 7 1012.5 - 0.0 - - - - - - -
24/05:00am 16.3 ENE 5 9 1012.5 - 0.0 - - - - - - -
24/04:30am 16.5 ENE 6 9 1012.5 - 0.0 - - - - - - -
24/04:00am 16.5 ENE 7 10 1012.6 - 0.0 - - - - - - -
24/03:30am 16.3 ENE 5 9 1013.1 - 0.0 - - - - - - -
24/03:00am 15.9 ENE 3 7 1013.4 - 0.0 - - - - - - -
24/02:30am 15.8 E 2 4 1013.8 - 0.0 - - - - - - -
24/02:00am 15.8 E 3 5 1014.3 - 0.0 - - - - - - -
24/01:30am 15.8 ENE 4 7 1014.7 - 0.0 - - - - - - -
24/01:00am 15.6 ENE 4 7 1015.0 - 0.0 - - - - - - -
24/12:30am 15.6 ENE 4 6 1015.4 - 0.0 - - - - - - -
24/12:00am 15.7 E 3 5 1015.6 - 0.0 - - - - - - -
 
Date/Time
EDT
Temp

°C
Wind Pressure Rain
since 9am
mm
Weather Cloud Vis
km
Sea
Height
m
Swell
Dir
 
Speed
knots
Gust
knots
hPa Trend Height
m
Period
s
Dir
23/11:30pm 16.0 E 4 6 1015.9 - 0.0 - - - - - - -
23/11:00pm 16.3 E 6 10 1016.2 - 0.0 - - - - - - -
23/10:30pm 16.5 E 8 11 1016.7 - 0.0 - - - - - - -
23/10:00pm 16.4 E 7 14 1016.9 - 0.0 - - - - - - -
23/09:30pm 16.3 E 8 13 1017.0 - 0.0 - - - - - - -
23/09:00pm 16.4 E 9 16 1016.8 - 0.0 - - - - - - -
23/08:30pm 16.5 E 9 16 1016.7 - 0.0 - - - - - - -
23/08:00pm 16.7 E 9 15 1016.5 - 0.0 - - - - - - -
23/07:30pm 17.1 E 9 16 1016.7 - 0.0 - - - - - - -
23/07:00pm 17.7 E 9 17 1016.7 - 0.0 - - - - - - -
23/06:30pm 18.1 E 9 16 1016.3 - 0.0 - - - - - - -
23/06:00pm 17.7 ESE 9 15 1016.7 - 0.0 - - - - - - -
23/05:30pm 17.7 ESE 11 15 1016.8 - 0.0 - - - - - - -
23/05:00pm 17.6 ESE 9 15 1016.8 - 0.0 - - - - - - -
23/04:30pm 17.5 ESE 10 17 1016.9 - 0.0 - - - - - - -
23/04:00pm 17.3 ESE 10 17 1017.2 - 0.0 - - - - - - -
23/03:30pm 17.6 ESE 8 15 1017.4 - 0.0 - - - - - - -
23/03:00pm 17.7 ESE 7 12 1017.7 - 0.0 - - - - - - -
23/02:30pm 17.8 ESE 4 6 1018.2 - 0.0 - - - - - - -
23/02:00pm 17.2 S 5 7 1018.6 - 0.0 - - - - - - -

Other Formats:

Comma delimited format used in spreadsheet applications
http://www.bom.gov.au/fwo/IDV60701/IDV60701.94898.axf

JavaScript Object Notation format (JSON) in row-major order
http://www.bom.gov.au/fwo/IDV60701/IDV60701.94898.json